Thunder radar more information blitzortung!


Radar de pluja more information rain snow radar


Visita la nostra xarxa de llocs de meteo:

Template documentation
and downloads

And another site



No particular awareness of the weather is required.    There are no Weather-warnings

Pagina Historial Weather Underground text

Diari Resum Octubre 22, 2017 Unitats:  Tant    Imperial   Mètric
« Previous Dia
SegĂźent Dia »
Diari Setmana Mensual Anual Personalitzada
  Maxima: Minima: Media:
Temperatura: TemperatureC °F /  -17.8 °C 13.0 °F /  -10.6 °C 17.1 °F /  -8.3 °C
Punt de rosada: DewpointC °F /  -17.8 °C 5.2 °F /  -14.9 °C 7.6 °F /  -13.6 °C
Humitat: Humidity % 47 % 54 %
Wind Speed: WindSpeedKMH mph /  0 km/h - 4.8 mph /  7.7 km/h
RĂ fegues de vent: WindSpeedGustKMH mph /  0 km/h - -
Vent:- - WSW
Pression baro: PressurehPa in /  0 hPa 1021.9 in /  34601.5 hPa -
Precipitacions: 0.0 in /  0 mm    
Historical Graphs
 
 
Dades de taula per Octubre 22, 2017
Temps Temperatura Punt de rosada Pression baro Vent Wind Speed RĂ fegues de vent Humitat Rainfall Rate (Hourly)
TemperatureC °F /  -17.8 °C DewpointC °F /  -17.8 °C PressurehPa in /  0 hPa Calm     Humidity % HourlyPrecipMM in /  0 mm
00:03 17.6 °F /  -8 °C 14.5 °F /  -9.7 °C 1021.9 in /  34601.5 hPa WSW 3.7 mph /  6 km/h 3.7 mph /  6 km/h 82 % 0.0 in /  0 mm
00:05 15.3 °F /  -9.3 °C 7.8 °F /  -13.4 °C 1022.9 in /  34635.4 hPa NW 1.6 mph /  2.6 km/h 3.2 mph /  5.1 km/h 61 % 0.0 in /  0 mm
00:08 17.6 °F /  -8 °C 14.5 °F /  -9.7 °C 1021.9 in /  34601.5 hPa WSW 1.9 mph /  3.1 km/h   82 % 0.0 in /  0 mm
00:13 17.7 °F /  -7.9 °C 14.8 °F /  -9.6 °C 1021.9 in /  34601.5 hPa WSW 1.9 mph /  3.1 km/h   83 % 0.0 in /  0 mm
00:15 15.0 °F /  -9.4 °C 7.6 °F /  -13.6 °C 1022.9 in /  34635.4 hPa North 3.2 mph /  5.1 km/h 3.2 mph /  5.1 km/h 61 % 0.0 in /  0 mm
00:25 15.0 °F /  -9.4 °C 7.6 °F /  -13.6 °C 1022.9 in /  34635.4 hPa West 1.6 mph /  2.6 km/h 6.4 mph /  10.3 km/h 61 % 0.0 in /  0 mm
00:35 14.9 °F /  -9.5 °C 7.2 °F /  -13.8 °C 1023.9 in /  34669.3 hPa WNW 3.2 mph /  5.1 km/h 8.0 mph /  12.9 km/h 60 % 0.0 in /  0 mm
00:45 14.8 °F /  -9.6 °C 7.1 °F /  -13.8 °C 1023.9 in /  34669.3 hPa NW 3.2 mph /  5.1 km/h 4.8 mph /  7.7 km/h 60 % 0.0 in /  0 mm
00:55 14.8 °F /  -9.6 °C 6.8 °F /  -14 °C 1023.9 in /  34669.3 hPa NW 8.0 mph /  12.9 km/h 8.0 mph /  12.9 km/h 59 % 0.0 in /  0 mm
01:05 14.7 °F /  -9.6 °C 6.5 °F /  -14.2 °C 1023.9 in /  34669.3 hPa WNW 8.0 mph /  12.9 km/h 9.7 mph /  15.6 km/h 58 % 0.0 in /  0 mm
01:15 14.6 °F /  -9.7 °C 6.4 °F /  -14.2 °C 1023.9 in /  34669.3 hPa West 3.2 mph /  5.1 km/h 4.8 mph /  7.7 km/h 58 % 0.0 in /  0 mm
01:25 14.5 °F /  -9.7 °C 6.3 °F /  -14.3 °C 1023.9 in /  34669.3 hPa West 3.2 mph /  5.1 km/h 4.8 mph /  7.7 km/h 58 % 0.0 in /  0 mm
01:35 14.3 °F /  -9.8 °C 6.2 °F /  -14.3 °C 1023.9 in /  34669.3 hPa WNW 1.6 mph /  2.6 km/h 3.2 mph /  5.1 km/h 58 % 0.0 in /  0 mm
01:45 14.2 °F /  -9.9 °C 6.1 °F /  -14.4 °C 1023.9 in /  34669.3 hPa North 3.2 mph /  5.1 km/h 3.2 mph /  5.1 km/h 58 % 0.0 in /  0 mm
01:55 14.1 °F /  -9.9 °C 5.9 °F /  -14.5 °C 1023.9 in /  34669.3 hPa NNW 1.6 mph /  2.6 km/h 9.7 mph /  15.6 km/h 58 % 0.0 in /  0 mm
02:05 14.0 °F /  -10 °C 5.8 °F /  -14.6 °C 1023.9 in /  34669.3 hPa NNW 3.2 mph /  5.1 km/h 8.0 mph /  12.9 km/h 58 % 0.0 in /  0 mm
02:15 13.8 °F /  -10.1 °C 5.9 °F /  -14.5 °C 1023.9 in /  34669.3 hPa NNE 1.6 mph /  2.6 km/h 4.8 mph /  7.7 km/h 59 % 0.0 in /  0 mm
02:25 13.7 °F /  -10.2 °C 5.8 °F /  -14.6 °C 1023.9 in /  34669.3 hPa NE 3.2 mph /  5.1 km/h 8.0 mph /  12.9 km/h 59 % 0.0 in /  0 mm
02:35 13.6 °F /  -10.2 °C 5.7 °F /  -14.6 °C 1023.9 in /  34669.3 hPa NNE 1.6 mph /  2.6 km/h 3.2 mph /  5.1 km/h 59 % 0.0 in /  0 mm
02:45 13.5 °F /  -10.3 °C 5.9 °F /  -14.5 °C 1023.9 in /  34669.3 hPa Calm   3.2 mph /  5.1 km/h 60 % 0.0 in /  0 mm
02:55 13.3 °F /  -10.4 °C 5.7 °F /  -14.6 °C 1023.9 in /  34669.3 hPa North 1.6 mph /  2.6 km/h 3.2 mph /  5.1 km/h 60 % 0.0 in /  0 mm
03:05 13.2 °F /  -10.4 °C 5.6 °F /  -14.7 °C 1023.9 in /  34669.3 hPa WNW 1.6 mph /  2.6 km/h 3.2 mph /  5.1 km/h 60 % 0.0 in /  0 mm
03:15 13.2 °F /  -10.4 °C 5.6 °F /  -14.7 °C 1023.9 in /  34669.3 hPa WNW 1.6 mph /  2.6 km/h 4.8 mph /  7.7 km/h 60 % 0.0 in /  0 mm
03:25 13.0 °F /  -10.6 °C 5.4 °F /  -14.8 °C 1023.9 in /  34669.3 hPa Calm   1.6 mph /  2.6 km/h 60 % 0.0 in /  0 mm
03:35 13.0 °F /  -10.6 °C 5.7 °F /  -14.6 °C 1023.9 in /  34669.3 hPa NNE 1.6 mph /  2.6 km/h 3.2 mph /  5.1 km/h 61 % 0.0 in /  0 mm
03:45 13.0 °F /  -10.6 °C 5.7 °F /  -14.6 °C 1024.9 in /  34703.1 hPa NW 1.6 mph /  2.6 km/h 6.4 mph /  10.3 km/h 61 % 0.0 in /  0 mm
03:55 13.1 °F /  -10.5 °C 5.7 °F /  -14.6 °C 1024.9 in /  34703.1 hPa West 3.2 mph /  5.1 km/h 4.8 mph /  7.7 km/h 61 % 0.0 in /  0 mm
04:05 13.0 °F /  -10.6 °C 5.7 °F /  -14.6 °C 1024.9 in /  34703.1 hPa West 1.6 mph /  2.6 km/h 4.8 mph /  7.7 km/h 61 % 0.0 in /  0 mm
04:15 13.0 °F /  -10.6 °C 5.9 °F /  -14.5 °C 1024.9 in /  34703.1 hPa Calm   3.2 mph /  5.1 km/h 62 % 0.0 in /  0 mm
04:25 14.0 °F /  -10 °C 6.8 °F /  -14 °C 1024.9 in /  34703.1 hPa SW 1.6 mph /  2.6 km/h 3.2 mph /  5.1 km/h 62 % 0.0 in /  0 mm
04:35 14.4 °F /  -9.8 °C 6.9 °F /  -13.9 °C 1024.9 in /  34703.1 hPa ENE 1.6 mph /  2.6 km/h 4.8 mph /  7.7 km/h 61 % 0.0 in /  0 mm
04:45 14.2 °F /  -9.9 °C 6.8 °F /  -14 °C 1024.9 in /  34703.1 hPa NE 1.6 mph /  2.6 km/h 1.6 mph /  2.6 km/h 61 % 0.0 in /  0 mm
04:55 14.3 °F /  -9.8 °C 7.1 °F /  -13.8 °C 1024.9 in /  34703.1 hPa Calm   4.8 mph /  7.7 km/h 62 % 0.0 in /  0 mm
05:05 14.8 °F /  -9.6 °C 7.3 °F /  -13.7 °C 1026.0 in /  34740.4 hPa NE 1.6 mph /  2.6 km/h 4.8 mph /  7.7 km/h 61 % 0.0 in /  0 mm
05:15 15.0 °F /  -9.4 °C 7.6 °F /  -13.6 °C 1024.9 in /  34703.1 hPa NE 3.2 mph /  5.1 km/h 4.8 mph /  7.7 km/h 61 % 0.0 in /  0 mm
05:25 15.2 °F /  -9.3 °C 7.7 °F /  -13.5 °C 1024.9 in /  34703.1 hPa WNW 3.2 mph /  5.1 km/h 4.8 mph /  7.7 km/h 61 % 0.0 in /  0 mm
05:35 15.3 °F /  -9.3 °C 7.6 °F /  -13.6 °C 1024.9 in /  34703.1 hPa WSW 3.2 mph /  5.1 km/h 8.0 mph /  12.9 km/h 60 % 0.0 in /  0 mm
05:45 15.9 °F /  -8.9 °C 8.2 °F /  -13.2 °C 1024.9 in /  34703.1 hPa WSW 1.6 mph /  2.6 km/h 6.4 mph /  10.3 km/h 60 % 0.0 in /  0 mm
05:55 15.6 °F /  -9.1 °C 7.8 °F /  -13.4 °C 1024.9 in /  34703.1 hPa West 8.0 mph /  12.9 km/h 8.0 mph /  12.9 km/h 60 % 0.0 in /  0 mm
06:05 16.0 °F /  -8.9 °C 8.0 °F /  -13.3 °C 1026.0 in /  34740.4 hPa West 1.6 mph /  2.6 km/h 4.8 mph /  7.7 km/h 59 % 0.0 in /  0 mm
11:09 16.2 °F /  -8.8 °C 8.2 °F /  -13.2 °C 1026.0 in /  34740.4 hPa WSW 5.6 mph /  9 km/h 5.6 mph /  9 km/h 59 % 0.0 in /  0 mm
11:10 16.2 °F /  -8.8 °C 7.9 °F /  -13.4 °C 1026.0 in /  34740.4 hPa West 5.6 mph /  9 km/h 5.8 mph /  9.3 km/h 58 % 0.0 in /  0 mm
11:15 16.1 °F /  -8.8 °C 7.8 °F /  -13.4 °C 1026.0 in /  34740.4 hPa West 18.5 mph /  29.8 km/h 18.5 mph /  29.8 km/h 58 % 0.0 in /  0 mm
11:20 16.1 °F /  -8.8 °C 7.6 °F /  -13.6 °C 1026.0 in /  34740.4 hPa SW 7.4 mph /  11.9 km/h 7.4 mph /  11.9 km/h 57 % 0.0 in /  0 mm
11:25 16.2 °F /  -8.8 °C 7.7 °F /  -13.5 °C 1024.9 in /  34703.1 hPa SSW 9.3 mph /  15 km/h 9.3 mph /  15 km/h 57 % 0.0 in /  0 mm
11:30 16.5 °F /  -8.6 °C 8.2 °F /  -13.2 °C 1024.9 in /  34703.1 hPa WNW 7.9 mph /  12.7 km/h 7.9 mph /  12.7 km/h 58 % 0.0 in /  0 mm
11:35 16.7 °F /  -8.5 °C 8.1 °F /  -13.3 °C 1024.9 in /  34703.1 hPa ENE 7.4 mph /  11.9 km/h 7.4 mph /  11.9 km/h 57 % 0.0 in /  0 mm
11:40 16.9 °F /  -8.4 °C 8.3 °F /  -13.2 °C 1026.0 in /  34740.4 hPa WSW 4.7 mph /  7.6 km/h 4.7 mph /  7.6 km/h 57 % 0.0 in /  0 mm
11:45 17.3 °F /  -8.2 °C 8.4 °F /  -13.1 °C 1026.0 in /  34740.4 hPa WSW 5.0 mph /  8 km/h 5.0 mph /  8 km/h 56 % 0.0 in /  0 mm
11:50 17.5 °F /  -8.1 °C 8.6 °F /  -13 °C 1026.0 in /  34740.4 hPa SW 5.6 mph /  9 km/h 5.6 mph /  9 km/h 56 % 0.0 in /  0 mm
11:55 17.7 °F /  -7.9 °C 8.8 °F /  -12.9 °C 1026.0 in /  34740.4 hPa SW 9.3 mph /  15 km/h 9.3 mph /  15 km/h 56 % 0.0 in /  0 mm
12:00 17.6 °F /  -8 °C 8.7 °F /  -12.9 °C 1026.0 in /  34740.4 hPa SW 9.3 mph /  15 km/h 9.3 mph /  15 km/h 56 % 0.0 in /  0 mm
12:05 17.4 °F /  -8.1 °C 8.3 °F /  -13.2 °C 1026.0 in /  34740.4 hPa WNW 13.0 mph /  20.9 km/h 13.0 mph /  20.9 km/h 55 % 0.0 in /  0 mm
12:10 17.5 °F /  -8.1 °C 8.3 °F /  -13.2 °C 1026.0 in /  34740.4 hPa WSW 9.3 mph /  15 km/h 9.3 mph /  15 km/h 55 % 0.0 in /  0 mm
12:15 17.6 °F /  -8 °C 8.4 °F /  -13.1 °C 1026.0 in /  34740.4 hPa NNE 9.3 mph /  15 km/h 9.3 mph /  15 km/h 55 % 0.0 in /  0 mm
12:20 17.7 °F /  -7.9 °C 8.3 °F /  -13.2 °C 1026.0 in /  34740.4 hPa WNW 7.4 mph /  11.9 km/h 7.4 mph /  11.9 km/h 54 % 0.0 in /  0 mm
12:25 18.0 °F /  -7.8 °C 8.6 °F /  -13 °C 1024.9 in /  34703.1 hPa WNW 5.6 mph /  9 km/h 5.6 mph /  9 km/h 54 % 0.0 in /  0 mm
12:29 18.1 °F /  -7.7 °C 8.7 °F /  -12.9 °C 1024.9 in /  34703.1 hPa SW 5.6 mph /  9 km/h 5.6 mph /  9 km/h 54 % 0.0 in /  0 mm
12:34 18.1 °F /  -7.7 °C 8.7 °F /  -12.9 °C 1024.9 in /  34703.1 hPa WSW 13.0 mph /  20.9 km/h 13.0 mph /  20.9 km/h 54 % 0.0 in /  0 mm
12:39 18.2 °F /  -7.7 °C 8.4 °F /  -13.1 °C 1024.9 in /  34703.1 hPa WSW 3.7 mph /  6 km/h 3.7 mph /  6 km/h 53 % 0.0 in /  0 mm
12:44 18.3 °F /  -7.6 °C 8.8 °F /  -12.9 °C 1026.0 in /  34740.4 hPa West 7.6 mph /  12.2 km/h 7.6 mph /  12.2 km/h 54 % 0.0 in /  0 mm
12:49 18.3 °F /  -7.6 °C 8.6 °F /  -13 °C 1026.0 in /  34740.4 hPa WSW 16.7 mph /  26.9 km/h 16.7 mph /  26.9 km/h 53 % 0.0 in /  0 mm
12:54 18.6 °F /  -7.4 °C 8.8 °F /  -12.9 °C 1024.9 in /  34703.1 hPa WNW 5.6 mph /  9 km/h 5.6 mph /  9 km/h 53 % 0.0 in /  0 mm
12:59 18.8 °F /  -7.3 °C 9.0 °F /  -12.8 °C 1024.9 in /  34703.1 hPa WSW 7.4 mph /  11.9 km/h 7.4 mph /  11.9 km/h 53 % 0.0 in /  0 mm
13:04 19.0 °F /  -7.2 °C 8.9 °F /  -12.8 °C 1024.9 in /  34703.1 hPa WSW 12.6 mph /  20.3 km/h 12.6 mph /  20.3 km/h 52 % 0.0 in /  0 mm
13:09 18.8 °F /  -7.3 °C 9.0 °F /  -12.8 °C 1024.9 in /  34703.1 hPa WNW 5.6 mph /  9 km/h 5.6 mph /  9 km/h 53 % 0.0 in /  0 mm
13:10 18.9 °F /  -7.3 °C 9.1 °F /  -12.7 °C 1024.9 in /  34703.1 hPa NW 5.6 mph /  9 km/h 5.6 mph /  9 km/h 53 % 0.0 in /  0 mm
13:15 18.7 °F /  -7.4 °C 8.6 °F /  -13 °C 1024.9 in /  34703.1 hPa SW 7.4 mph /  11.9 km/h 7.4 mph /  11.9 km/h 52 % 0.0 in /  0 mm
13:20 18.7 °F /  -7.4 °C 8.6 °F /  -13 °C 1024.9 in /  34703.1 hPa SW 7.4 mph /  11.9 km/h 7.4 mph /  11.9 km/h 52 % 0.0 in /  0 mm
13:25 18.9 °F /  -7.3 °C 8.8 °F /  -12.9 °C 1026.0 in /  34740.4 hPa NW 9.3 mph /  15 km/h 9.3 mph /  15 km/h 52 % 0.0 in /  0 mm
13:30 18.9 °F /  -7.3 °C 8.8 °F /  -12.9 °C 1026.0 in /  34740.4 hPa WNW 7.4 mph /  11.9 km/h 7.4 mph /  11.9 km/h 52 % 0.0 in /  0 mm
13:35 18.8 °F /  -7.3 °C 8.7 °F /  -12.9 °C 1026.0 in /  34740.4 hPa WNW 5.6 mph /  9 km/h 5.6 mph /  9 km/h 52 % 0.0 in /  0 mm
13:40 19.1 °F /  -7.2 °C 8.7 °F /  -12.9 °C 1026.0 in /  34740.4 hPa NNE 7.4 mph /  11.9 km/h 7.4 mph /  11.9 km/h 51 % 0.0 in /  0 mm
13:45 19.4 °F /  -7 °C 9.0 °F /  -12.8 °C 1026.0 in /  34740.4 hPa WNW 9.3 mph /  15 km/h 9.3 mph /  15 km/h 51 % 0.0 in /  0 mm
13:50 19.5 °F /  -6.9 °C 9.1 °F /  -12.7 °C 1026.0 in /  34740.4 hPa West 9.3 mph /  15 km/h 9.3 mph /  15 km/h 51 % 0.0 in /  0 mm
13:55 19.4 °F /  -7 °C 9.0 °F /  -12.8 °C 1026.0 in /  34740.4 hPa SW 10.0 mph /  16.1 km/h 10.0 mph /  16.1 km/h 51 % 0.0 in /  0 mm
14:00 19.3 °F /  -7.1 °C 8.6 °F /  -13 °C 1026.0 in /  34740.4 hPa WSW 5.6 mph /  9 km/h 5.6 mph /  9 km/h 50 % 0.0 in /  0 mm
14:05 19.5 °F /  -6.9 °C 9.1 °F /  -12.7 °C 1026.0 in /  34740.4 hPa WNW 7.2 mph /  11.6 km/h 7.2 mph /  11.6 km/h 51 % 0.0 in /  0 mm
14:10 19.7 °F /  -6.8 °C 9.0 °F /  -12.8 °C 1026.0 in /  34740.4 hPa SW 9.7 mph /  15.6 km/h 9.7 mph /  15.6 km/h 50 % 0.0 in /  0 mm
14:15 19.6 °F /  -6.9 °C 8.9 °F /  -12.8 °C 1026.0 in /  34740.4 hPa West 7.4 mph /  11.9 km/h 7.4 mph /  11.9 km/h 50 % 0.0 in /  0 mm
14:20 19.5 °F /  -6.9 °C 8.8 °F /  -12.9 °C 1026.0 in /  34740.4 hPa WSW 5.6 mph /  9 km/h 5.6 mph /  9 km/h 50 % 0.0 in /  0 mm
14:25 19.8 °F /  -6.8 °C 9.1 °F /  -12.7 °C 1026.0 in /  34740.4 hPa West 13.0 mph /  20.9 km/h 13.0 mph /  20.9 km/h 50 % 0.0 in /  0 mm
14:30 19.8 °F /  -6.8 °C 9.1 °F /  -12.7 °C 1026.0 in /  34740.4 hPa West 7.4 mph /  11.9 km/h 7.4 mph /  11.9 km/h 50 % 0.0 in /  0 mm
14:35 19.8 °F /  -6.8 °C 8.8 °F /  -12.9 °C 1026.0 in /  34740.4 hPa SW 10.0 mph /  16.1 km/h 10.0 mph /  16.1 km/h 49 % 0.0 in /  0 mm
14:40 19.8 °F /  -6.8 °C 8.8 °F /  -12.9 °C 1024.9 in /  34703.1 hPa WNW 9.3 mph /  15 km/h 9.3 mph /  15 km/h 49 % 0.0 in /  0 mm
14:45 19.7 °F /  -6.8 °C 8.7 °F /  -12.9 °C 1024.9 in /  34703.1 hPa NW 5.6 mph /  9 km/h 5.6 mph /  9 km/h 49 % 0.0 in /  0 mm
14:50 19.9 °F /  -6.7 °C 9.2 °F /  -12.7 °C 1024.9 in /  34703.1 hPa WSW 5.3 mph /  8.5 km/h 7.9 mph /  12.7 km/h 50 % 0.0 in /  0 mm
14:55 19.8 °F /  -6.8 °C 8.8 °F /  -12.9 °C 1023.9 in /  34669.3 hPa West 7.4 mph /  11.9 km/h 7.4 mph /  11.9 km/h 49 % 0.0 in /  0 mm
15:00 20.2 °F /  -6.6 °C 9.2 °F /  -12.7 °C 1023.9 in /  34669.3 hPa WSW 7.4 mph /  11.9 km/h 7.4 mph /  11.9 km/h 49 % 0.0 in /  0 mm
15:05 20.2 °F /  -6.6 °C 9.2 °F /  -12.7 °C 1023.9 in /  34669.3 hPa WSW 13.0 mph /  20.9 km/h 13.0 mph /  20.9 km/h 49 % 0.0 in /  0 mm
15:10 20.1 °F /  -6.6 °C 9.1 °F /  -12.7 °C 1023.9 in /  34669.3 hPa West 5.8 mph /  9.3 km/h 5.8 mph /  9.3 km/h 49 % 0.0 in /  0 mm
15:15 20.1 °F /  -6.6 °C 9.1 °F /  -12.7 °C 1023.9 in /  34669.3 hPa SSW 5.6 mph /  9 km/h 5.6 mph /  9 km/h 49 % 0.0 in /  0 mm
15:20 20.3 °F /  -6.5 °C 9.2 °F /  -12.7 °C 1023.9 in /  34669.3 hPa WSW 13.0 mph /  20.9 km/h 13.0 mph /  20.9 km/h 49 % 0.0 in /  0 mm
15:25 20.3 °F /  -6.5 °C 9.2 °F /  -12.7 °C 1023.9 in /  34669.3 hPa SW 7.4 mph /  11.9 km/h 7.4 mph /  11.9 km/h 49 % 0.0 in /  0 mm
15:30 20.5 °F /  -6.4 °C 9.4 °F /  -12.6 °C 1023.9 in /  34669.3 hPa SW 5.6 mph /  9 km/h 5.6 mph /  9 km/h 49 % 0.0 in /  0 mm
15:35 20.5 °F /  -6.4 °C 9.4 °F /  -12.6 °C 1023.9 in /  34669.3 hPa SW 11.1 mph /  17.9 km/h 11.1 mph /  17.9 km/h 49 % 0.0 in /  0 mm
15:40 20.1 °F /  -6.6 °C 8.7 °F /  -12.9 °C 1022.9 in /  34635.4 hPa WNW 9.3 mph /  15 km/h 9.3 mph /  15 km/h 48 % 0.0 in /  0 mm
15:45 20.5 °F /  -6.4 °C 9.4 °F /  -12.6 °C 1022.9 in /  34635.4 hPa WSW 11.1 mph /  17.9 km/h 11.1 mph /  17.9 km/h 49 % 0.0 in /  0 mm
15:50 20.5 °F /  -6.4 °C 9.1 °F /  -12.7 °C 1022.9 in /  34635.4 hPa WSW 5.6 mph /  9 km/h 5.6 mph /  9 km/h 48 % 0.0 in /  0 mm
15:55 20.5 °F /  -6.4 °C 9.1 °F /  -12.7 °C 1023.9 in /  34669.3 hPa WSW 6.4 mph /  10.3 km/h 6.4 mph /  10.3 km/h 48 % 0.0 in /  0 mm
16:00 20.4 °F /  -6.4 °C 9.0 °F /  -12.8 °C 1023.9 in /  34669.3 hPa NW 9.3 mph /  15 km/h 9.3 mph /  15 km/h 48 % 0.0 in /  0 mm
16:05 20.6 °F /  -6.3 °C 9.2 °F /  -12.7 °C 1023.9 in /  34669.3 hPa West 7.4 mph /  11.9 km/h 7.4 mph /  11.9 km/h 48 % 0.0 in /  0 mm
16:10 20.5 °F /  -6.4 °C 9.1 °F /  -12.7 °C 1023.9 in /  34669.3 hPa WSW 7.4 mph /  11.9 km/h 7.4 mph /  11.9 km/h 48 % 0.0 in /  0 mm
16:15 20.6 °F /  -6.3 °C 9.2 °F /  -12.7 °C 1023.9 in /  34669.3 hPa SW 6.9 mph /  11.1 km/h 6.9 mph /  11.1 km/h 48 % 0.0 in /  0 mm
16:20 20.5 °F /  -6.4 °C 9.1 °F /  -12.7 °C 1023.9 in /  34669.3 hPa WNW 11.1 mph /  17.9 km/h 11.1 mph /  17.9 km/h 48 % 0.0 in /  0 mm
16:25 20.5 °F /  -6.4 °C 9.1 °F /  -12.7 °C 1022.9 in /  34635.4 hPa WSW 5.6 mph /  9 km/h 5.6 mph /  9 km/h 48 % 0.0 in /  0 mm
16:30 20.5 °F /  -6.4 °C 9.1 °F /  -12.7 °C 1022.9 in /  34635.4 hPa WSW 3.7 mph /  6 km/h 3.7 mph /  6 km/h 48 % 0.0 in /  0 mm
16:35 20.5 °F /  -6.4 °C 9.1 °F /  -12.7 °C 1022.9 in /  34635.4 hPa WSW 7.4 mph /  11.9 km/h 7.4 mph /  11.9 km/h 48 % 0.0 in /  0 mm
16:40 20.7 °F /  -6.3 °C 9.3 °F /  -12.6 °C 1022.9 in /  34635.4 hPa West 5.6 mph /  9 km/h 5.6 mph /  9 km/h 48 % 0.0 in /  0 mm
16:45 20.8 °F /  -6.2 °C 9.4 °F /  -12.6 °C 1022.9 in /  34635.4 hPa NW 7.4 mph /  11.9 km/h 7.4 mph /  11.9 km/h 48 % 0.0 in /  0 mm
16:50 20.7 °F /  -6.3 °C 9.3 °F /  -12.6 °C 1022.9 in /  34635.4 hPa WSW 9.3 mph /  15 km/h 9.3 mph /  15 km/h 48 % 0.0 in /  0 mm
16:55 20.7 °F /  -6.3 °C 9.0 °F /  -12.8 °C 1022.9 in /  34635.4 hPa NW 3.7 mph /  6 km/h 3.7 mph /  6 km/h 47 % 0.0 in /  0 mm
17:00 20.9 °F /  -6.2 °C 9.5 °F /  -12.5 °C 1022.9 in /  34635.4 hPa SW 5.6 mph /  9 km/h 5.6 mph /  9 km/h 48 % 0.0 in /  0 mm
17:05 20.9 °F /  -6.2 °C 9.2 °F /  -12.7 °C 1022.9 in /  34635.4 hPa West 9.3 mph /  15 km/h 9.3 mph /  15 km/h 47 % 0.0 in /  0 mm
17:10 20.8 °F /  -6.2 °C 9.1 °F /  -12.7 °C 1022.9 in /  34635.4 hPa WSW 9.3 mph /  15 km/h 9.3 mph /  15 km/h 47 % 0.0 in /  0 mm
17:15 21.0 °F /  -6.1 °C 9.3 °F /  -12.6 °C 1022.9 in /  34635.4 hPa WNW 5.6 mph /  9 km/h 5.6 mph /  9 km/h 47 % 0.0 in /  0 mm
17:20 21.0 °F /  -6.1 °C 9.3 °F /  -12.6 °C 1022.9 in /  34635.4 hPa WSW 5.6 mph /  9 km/h 5.6 mph /  9 km/h 47 % 0.0 in /  0 mm
17:21 20.9 °F /  -6.2 °C 9.2 °F /  -12.7 °C 1022.9 in /  34635.4 hPa West 5.8 mph /  9.3 km/h 5.8 mph /  9.3 km/h 47 % 0.0 in /  0 mm
17:26 20.6 °F /  -6.3 °C 8.9 °F /  -12.8 °C 1022.9 in /  34635.4 hPa West 5.6 mph /  9 km/h 5.6 mph /  9 km/h 47 % 0.0 in /  0 mm
17:31 20.3 °F /  -6.5 °C 8.6 °F /  -13 °C 1022.9 in /  34635.4 hPa WNW 6.1 mph /  9.8 km/h 6.1 mph /  9.8 km/h 47 % 0.0 in /  0 mm
17:36 20.3 °F /  -6.5 °C 8.6 °F /  -13 °C 1022.9 in /  34635.4 hPa North 5.6 mph /  9 km/h 5.6 mph /  9 km/h 47 % 0.0 in /  0 mm
17:41 20.0 °F /  -6.7 °C 8.3 °F /  -13.2 °C 1022.9 in /  34635.4 hPa SSW 5.6 mph /  9 km/h 5.6 mph /  9 km/h 47 % 0.0 in /  0 mm
17:46 20.0 °F /  -6.7 °C 8.3 °F /  -13.2 °C 1022.9 in /  34635.4 hPa NNW 7.4 mph /  11.9 km/h 7.4 mph /  11.9 km/h 47 % 0.0 in /  0 mm
17:51 19.9 °F /  -6.7 °C 8.2 °F /  -13.2 °C 1022.9 in /  34635.4 hPa NW 5.6 mph /  9 km/h 5.6 mph /  9 km/h 47 % 0.0 in /  0 mm
17:56 19.8 °F /  -6.8 °C 8.2 °F /  -13.2 °C 1022.9 in /  34635.4 hPa West 5.6 mph /  9 km/h 5.6 mph /  9 km/h 47 % 0.0 in /  0 mm
18:01 19.9 °F /  -6.7 °C 8.2 °F /  -13.2 °C 1022.9 in /  34635.4 hPa WNW 3.7 mph /  6 km/h 3.7 mph /  6 km/h 47 % 0.0 in /  0 mm
18:06 19.8 °F /  -6.8 °C 8.2 °F /  -13.2 °C 1022.9 in /  34635.4 hPa WNW 3.7 mph /  6 km/h 3.7 mph /  6 km/h 47 % 0.0 in /  0 mm
18:11 19.7 °F /  -6.8 °C 8.4 °F /  -13.1 °C 1022.9 in /  34635.4 hPa WNW 5.6 mph /  9 km/h 5.6 mph /  9 km/h 48 % 0.0 in /  0 mm
18:16 19.6 °F /  -6.9 °C 8.3 °F /  -13.2 °C 1022.9 in /  34635.4 hPa West 5.6 mph /  9 km/h 5.6 mph /  9 km/h 48 % 0.0 in /  0 mm
18:21 19.4 °F /  -7 °C 8.1 °F /  -13.3 °C 1022.9 in /  34635.4 hPa NNW 5.6 mph /  9 km/h 5.6 mph /  9 km/h 48 % 0.0 in /  0 mm
18:26 19.2 °F /  -7.1 °C 7.9 °F /  -13.4 °C 1022.9 in /  34635.4 hPa SW 4.7 mph /  7.6 km/h 4.7 mph /  7.6 km/h 48 % 0.0 in /  0 mm
18:31 19.1 °F /  -7.2 °C 7.8 °F /  -13.4 °C 1022.9 in /  34635.4 hPa WSW 5.6 mph /  9 km/h 5.6 mph /  9 km/h 48 % 0.0 in /  0 mm
18:36 19.0 °F /  -7.2 °C 7.7 °F /  -13.5 °C 1022.9 in /  34635.4 hPa WNW 9.3 mph /  15 km/h 9.3 mph /  15 km/h 48 % 0.0 in /  0 mm
18:41 18.8 °F /  -7.3 °C 7.8 °F /  -13.4 °C 1022.9 in /  34635.4 hPa North 5.6 mph /  9 km/h 5.6 mph /  9 km/h 49 % 0.0 in /  0 mm
18:46 18.7 °F /  -7.4 °C 7.8 °F /  -13.4 °C 1022.9 in /  34635.4 hPa WNW 5.6 mph /  9 km/h 5.6 mph /  9 km/h 49 % 0.0 in /  0 mm
18:51 18.4 °F /  -7.6 °C 7.5 °F /  -13.6 °C 1022.9 in /  34635.4 hPa SW 5.6 mph /  9 km/h 5.6 mph /  9 km/h 49 % 0.0 in /  0 mm
18:56 18.2 °F /  -7.7 °C 7.3 °F /  -13.7 °C 1022.9 in /  34635.4 hPa WSW 4.7 mph /  7.6 km/h 4.7 mph /  7.6 km/h 49 % 0.0 in /  0 mm
19:01 18.0 °F /  -7.8 °C 7.1 °F /  -13.8 °C 1022.9 in /  34635.4 hPa West 3.9 mph /  6.3 km/h 3.9 mph /  6.3 km/h 49 % 0.0 in /  0 mm
19:06 17.9 °F /  -7.8 °C 7.0 °F /  -13.9 °C 1022.9 in /  34635.4 hPa SW 3.7 mph /  6 km/h 3.7 mph /  6 km/h 49 % 0.0 in /  0 mm
19:11 17.7 °F /  -7.9 °C 6.8 °F /  -14 °C 1022.9 in /  34635.4 hPa SW 2.3 mph /  3.7 km/h   49 % 0.0 in /  0 mm
19:16 17.5 °F /  -8.1 °C 6.9 °F /  -13.9 °C 1022.9 in /  34635.4 hPa WNW 1.9 mph /  3.1 km/h 1.9 mph /  3.1 km/h 50 % 0.0 in /  0 mm
19:21 17.3 °F /  -8.2 °C 6.8 °F /  -14 °C 1022.9 in /  34635.4 hPa NW 1.9 mph /  3.1 km/h   50 % 0.0 in /  0 mm
19:26 17.1 °F /  -8.3 °C 6.6 °F /  -14.1 °C 1023.9 in /  34669.3 hPa Calm     50 % 0.0 in /  0 mm
19:31 17.0 °F /  -8.3 °C 6.5 °F /  -14.2 °C 1023.9 in /  34669.3 hPa Calm     50 % 0.0 in /  0 mm
19:36 17.0 °F /  -8.3 °C 6.5 °F /  -14.2 °C 1023.9 in /  34669.3 hPa West 1.9 mph /  3.1 km/h 1.9 mph /  3.1 km/h 50 % 0.0 in /  0 mm
19:41 16.9 °F /  -8.4 °C 7.0 °F /  -13.9 °C 1023.9 in /  34669.3 hPa West 1.9 mph /  3.1 km/h 1.9 mph /  3.1 km/h 52 % 0.0 in /  0 mm
19:46 16.8 °F /  -8.4 °C 6.9 °F /  -13.9 °C 1023.9 in /  34669.3 hPa West 2.3 mph /  3.7 km/h   52 % 0.0 in /  0 mm
19:51 16.6 °F /  -8.6 °C 6.7 °F /  -14.1 °C 1023.9 in /  34669.3 hPa West 2.3 mph /  3.7 km/h 2.3 mph /  3.7 km/h 52 % 0.0 in /  0 mm
19:56 16.6 °F /  -8.6 °C 6.7 °F /  -14.1 °C 1023.9 in /  34669.3 hPa West 3.7 mph /  6 km/h 3.7 mph /  6 km/h 52 % 0.0 in /  0 mm
20:01 16.6 °F /  -8.6 °C 6.7 °F /  -14.1 °C 1023.9 in /  34669.3 hPa WSW 3.7 mph /  6 km/h 3.7 mph /  6 km/h 52 % 0.0 in /  0 mm
20:06 16.7 °F /  -8.5 °C 6.8 °F /  -14 °C 1023.9 in /  34669.3 hPa West 4.2 mph /  6.8 km/h 4.2 mph /  6.8 km/h 52 % 0.0 in /  0 mm
20:11 16.6 °F /  -8.6 °C 6.7 °F /  -14.1 °C 1023.9 in /  34669.3 hPa WSW 5.6 mph /  9 km/h 5.6 mph /  9 km/h 52 % 0.0 in /  0 mm
20:16 16.6 °F /  -8.6 °C 6.7 °F /  -14.1 °C 1023.9 in /  34669.3 hPa West 3.2 mph /  5.1 km/h 3.2 mph /  5.1 km/h 52 % 0.0 in /  0 mm
20:21 16.5 °F /  -8.6 °C 6.9 °F /  -13.9 °C 1023.9 in /  34669.3 hPa WSW 2.3 mph /  3.7 km/h 2.3 mph /  3.7 km/h 53 % 0.0 in /  0 mm
20:26 16.4 °F /  -8.7 °C 6.8 °F /  -14 °C 1023.9 in /  34669.3 hPa WSW 3.7 mph /  6 km/h 3.7 mph /  6 km/h 53 % 0.0 in /  0 mm
20:31 16.3 °F /  -8.7 °C 6.7 °F /  -14.1 °C 1023.9 in /  34669.3 hPa WSW 1.9 mph /  3.1 km/h   53 % 0.0 in /  0 mm
20:36 16.2 °F /  -8.8 °C 6.6 °F /  -14.1 °C 1023.9 in /  34669.3 hPa Calm     53 % 0.0 in /  0 mm
20:41 16.2 °F /  -8.8 °C 6.6 °F /  -14.1 °C 1023.9 in /  34669.3 hPa WNW 2.3 mph /  3.7 km/h   53 % 0.0 in /  0 mm
20:46 16.2 °F /  -8.8 °C 6.6 °F /  -14.1 °C 1023.9 in /  34669.3 hPa WSW 3.7 mph /  6 km/h 3.7 mph /  6 km/h 53 % 0.0 in /  0 mm
20:51 16.2 °F /  -8.8 °C 6.6 °F /  -14.1 °C 1023.9 in /  34669.3 hPa West 3.2 mph /  5.1 km/h   53 % 0.0 in /  0 mm
20:56 16.2 °F /  -8.8 °C 6.6 °F /  -14.1 °C 1023.9 in /  34669.3 hPa West 3.7 mph /  6 km/h 3.7 mph /  6 km/h 53 % 0.0 in /  0 mm
21:01 16.2 °F /  -8.8 °C 6.6 °F /  -14.1 °C 1023.9 in /  34669.3 hPa West 3.7 mph /  6 km/h 3.7 mph /  6 km/h 53 % 0.0 in /  0 mm
21:06 16.1 °F /  -8.8 °C 6.5 °F /  -14.2 °C 1023.9 in /  34669.3 hPa WSW 3.7 mph /  6 km/h   53 % 0.0 in /  0 mm
21:11 16.0 °F /  -8.9 °C 6.4 °F /  -14.2 °C 1023.9 in /  34669.3 hPa SW 3.7 mph /  6 km/h   53 % 0.0 in /  0 mm
21:16 15.9 °F /  -8.9 °C 6.6 °F /  -14.1 °C 1023.9 in /  34669.3 hPa Calm     54 % 0.0 in /  0 mm
21:21 15.7 °F /  -9.1 °C 6.4 °F /  -14.2 °C 1023.9 in /  34669.3 hPa West 2.3 mph /  3.7 km/h 2.3 mph /  3.7 km/h 54 % 0.0 in /  0 mm
21:26 15.6 °F /  -9.1 °C 6.3 °F /  -14.3 °C 1023.9 in /  34669.3 hPa WSW 3.9 mph /  6.3 km/h 3.9 mph /  6.3 km/h 54 % 0.0 in /  0 mm
21:31 15.5 °F /  -9.2 °C 6.2 °F /  -14.3 °C 1023.9 in /  34669.3 hPa WSW 2.3 mph /  3.7 km/h 2.3 mph /  3.7 km/h 54 % 0.0 in /  0 mm
21:36 15.4 °F /  -9.2 °C 6.1 °F /  -14.4 °C 1023.9 in /  34669.3 hPa West 3.7 mph /  6 km/h 3.7 mph /  6 km/h 54 % 0.0 in /  0 mm
21:41 15.4 °F /  -9.2 °C 6.1 °F /  -14.4 °C 1023.9 in /  34669.3 hPa West 1.9 mph /  3.1 km/h   54 % 0.0 in /  0 mm
21:46 15.3 °F /  -9.3 °C 6.1 °F /  -14.4 °C 1023.9 in /  34669.3 hPa West 2.6 mph /  4.2 km/h   54 % 0.0 in /  0 mm
21:51 15.3 °F /  -9.3 °C 6.3 °F /  -14.3 °C 1023.9 in /  34669.3 hPa WSW 1.9 mph /  3.1 km/h   55 % 0.0 in /  0 mm
21:56 15.2 °F /  -9.3 °C 6.2 °F /  -14.3 °C 1023.9 in /  34669.3 hPa WSW 1.9 mph /  3.1 km/h 1.9 mph /  3.1 km/h 55 % 0.0 in /  0 mm
22:01 15.1 °F /  -9.4 °C 6.1 °F /  -14.4 °C 1023.9 in /  34669.3 hPa SW 1.9 mph /  3.1 km/h 1.9 mph /  3.1 km/h 55 % 0.0 in /  0 mm
22:06 14.9 °F /  -9.5 °C 6.2 °F /  -14.3 °C 1023.9 in /  34669.3 hPa Calm     56 % 0.0 in /  0 mm
22:11 14.7 °F /  -9.6 °C 6.0 °F /  -14.4 °C 1023.9 in /  34669.3 hPa Calm     56 % 0.0 in /  0 mm
22:16 14.6 °F /  -9.7 °C 5.9 °F /  -14.5 °C 1023.9 in /  34669.3 hPa West 1.9 mph /  3.1 km/h   56 % 0.0 in /  0 mm
22:21 14.6 °F /  -9.7 °C 5.9 °F /  -14.5 °C 1023.9 in /  34669.3 hPa Calm     56 % 0.0 in /  0 mm
22:26 14.6 °F /  -9.7 °C 5.7 °F /  -14.6 °C 1023.9 in /  34669.3 hPa NW 1.9 mph /  3.1 km/h 1.9 mph /  3.1 km/h 55 % 0.0 in /  0 mm
22:31 14.6 °F /  -9.7 °C 5.9 °F /  -14.5 °C 1023.9 in /  34669.3 hPa Calm     56 % 0.0 in /  0 mm
22:36 14.5 °F /  -9.7 °C 5.8 °F /  -14.6 °C 1023.9 in /  34669.3 hPa West 1.4 mph /  2.3 km/h 1.9 mph /  3.1 km/h 56 % 0.0 in /  0 mm
22:41 14.5 °F /  -9.7 °C 5.8 °F /  -14.6 °C 1024.9 in /  34703.1 hPa Calm     56 % 0.0 in /  0 mm
22:46 14.5 °F /  -9.7 °C 5.8 °F /  -14.6 °C 1024.9 in /  34703.1 hPa NNE 1.9 mph /  3.1 km/h 1.9 mph /  3.1 km/h 56 % 0.0 in /  0 mm
22:51 14.4 °F /  -9.8 °C 5.7 °F /  -14.6 °C 1024.9 in /  34703.1 hPa Calm     56 % 0.0 in /  0 mm
22:56 14.4 °F /  -9.8 °C 5.7 °F /  -14.6 °C 1024.9 in /  34703.1 hPa Calm     56 % 0.0 in /  0 mm
23:01 14.3 °F /  -9.8 °C 5.6 °F /  -14.7 °C 1024.9 in /  34703.1 hPa Calm     56 % 0.0 in /  0 mm
23:06 14.3 °F /  -9.8 °C 5.9 °F /  -14.5 °C 1024.9 in /  34703.1 hPa Calm     57 % 0.0 in /  0 mm
23:11 14.2 °F /  -9.9 °C 5.8 °F /  -14.6 °C 1024.9 in /  34703.1 hPa WNW 1.9 mph /  3.1 km/h   57 % 0.0 in /  0 mm
23:16 14.2 °F /  -9.9 °C 5.8 °F /  -14.6 °C 1024.9 in /  34703.1 hPa WNW 1.9 mph /  3.1 km/h   57 % 0.0 in /  0 mm
23:21 14.1 °F /  -9.9 °C 5.7 °F /  -14.6 °C 1024.9 in /  34703.1 hPa WNW 1.9 mph /  3.1 km/h 1.9 mph /  3.1 km/h 57 % 0.0 in /  0 mm
23:26 14.0 °F /  -10 °C 5.6 °F /  -14.7 °C 1024.9 in /  34703.1 hPa NE 1.9 mph /  3.1 km/h   57 % 0.0 in /  0 mm
23:31 13.9 °F /  -10.1 °C 5.8 °F /  -14.6 °C 1024.9 in /  34703.1 hPa NE 3.2 mph /  5.1 km/h   58 % 0.0 in /  0 mm
23:36 13.9 °F /  -10.1 °C 5.8 °F /  -14.6 °C 1024.9 in /  34703.1 hPa WNW 3.7 mph /  6 km/h 3.7 mph /  6 km/h 58 % 0.0 in /  0 mm
23:41 13.9 °F /  -10.1 °C 5.8 °F /  -14.6 °C 1024.9 in /  34703.1 hPa NNE 1.9 mph /  3.1 km/h   58 % 0.0 in /  0 mm
23:46 13.8 °F /  -10.1 °C 5.9 °F /  -14.5 °C 1024.9 in /  34703.1 hPa WNW 1.9 mph /  3.1 km/h   59 % 0.0 in /  0 mm
23:51 13.4 °F /  -10.3 °C 5.6 °F /  -14.7 °C 1024.9 in /  34703.1 hPa SW 3.5 mph /  5.6 km/h 3.5 mph /  5.6 km/h 59 % 0.0 in /  0 mm
23:56 13.0 °F /  -10.6 °C 5.2 °F /  -14.9 °C 1024.9 in /  34703.1 hPa WSW 3.9 mph /  6.3 km/h 3.9 mph /  6.3 km/h 59 % 0.0 in /  0 mm
Meteo Sesrovires
Elogis d' Weather Underground - 2 mb

Guio original per  Jim McMurry - jmcmurry@mwt.net Adaptat per a la plantilla per  Wim van der Kuil - Leuven-Template.eu

Trobareu la nostra informacio del temps tambe a:

Weather Underground

AWEKAS